Lethbridge County Airport
CYQL : now visible

Airfield :











YOU CAN JOIN US ON...

 
LOGIN :

Register | Disclaimer

   EN    FR    IT 

 









Legend :    VFR   Marginal VFR   IFR   Intensive IFR   Very Intensive IFR
Visi :
Ceiling :
>= 8 km
>= 3000ft
5 to 8 km
1000 to 3000 ft
1500m to 5 km
500 to 1000 ft
800 to 1500m
200 to 500 ft
< 800m
< 200 ft
Symbols :   Thunderstorms  Fog  Heavy snow  Heavy precipitations  Wind > 20 kt







- Airport Elevation : 3047 ft
- IATA code : YQL


CYQL - Lethbridge County

CURRENT METAR :
  • 222348Z 03010KT 25SM -SHRA FEW020 BKN034 OVC070 19/15 A2993 RMK CU2CU3AC3 SLP129 DENSITY ALT 4300FT

EXPIRED METARs :
  • 222300Z 04007KT 30SM BKN028 OVC090 20/14 A2992 RMK CU5AC3 SLP122 DENSITY ALT 4400FT
  • 222200Z 02005KT 350V080 25SM FEW021 BKN070 OVC095 21/14 A2991 RMK CU2AC4AC2 SLP118 DENSITY ALT 4400FT
  • 222100Z 06006KT 010V070 25SM SCT021 BKN140 BKN280 20/14 A2991 RMK CU3AC3CI1 SLP119 DENSITY ALT 4400FT

TAF TAF CYQL
Valid from the 23 at 00:00 until the 23 at 12:00 UTC


222338Z 2300/2312 04007KT P6SM SCT030 BKN090
TEMPO 2300/2303 P6SM -SHRA BKN030 OVC090
PROB30 2300/2302 4SM TSRA BKN040CB
FM230300 VRB03KT P6SM SCT012 BKN025
TEMPO 2303/2312 BKN012
BECMG 2308/2310 18008KT RMK NXT FCST BY 230600Z
No reported NOTAMs for that airfield.



MET'MAP, your aeronautical weather chart ! - Copyright ORBIFLY December 2007 - Disclaimer

ORBIFLY MET'MAP TEAM :

Programming & Development : Alexandra Zaïnal
Concept & Development : Baudouin d'Aumeries
Co-Development & Prog : Marc-Olivier Méhu
Technical & hardware support : Manuel Goepfert

Contact : metmap@orbifly.com




SOURCES & CREDITS :

   NOAA       Earth
Advisory